Terminal Aerodrome Forecast
Issued by NWS Springfield, MO

Home | Current Version | Previous Version | Text Only | Print | Product List | Glossary On
Versions: 1 2 3 4 5 6 7 8 9 10 11 12 13 14 15 16 17
092
FTUS43 KSGF 200520
TAFSGF
TAF
KSGF 200520Z 2006/2106 16015KT P6SM SKC WS020/21040KT
     FM201300 20009KT P6SM SCT200 WS020/23040KT
     FM202000 27007KT P6SM SCT250
     FM210200 01005KT P6SM BKN080
     FM210500 10006KT P6SM BKN070=

USA.gov is the U.S. government's official web portal to all federal, state and local government web resources and services.